»·PEaware :: N2442P KFAT-KBFL

N2442P :: KFAT-KBFL

FLIGHT INFORMATION

Flight Status: Arrived
Operator: Privately registered:
United States
More flights under this callsign
Pilot: Ken Q. (14290)
Aircraft: MOONEY M-20K/M ENCORE BRAVO
(M20T)
More flights by this aircraft type
Origin: KFAT Fresno Yosemite Intl
United States
Destination: KBFL Meadows
United States
More flights between these airports :: More routes between these airports
Route: LATON EHF
File this flight plan on PilotEdge
Remarks:
Altitude:
(Current/Filed)
3,500ft
Speed:
(Current/Filed)
175kts
Departed: 29-Sep-22 12:32 PM
Arrived: 29-Sep-22 01:16 PM
Distance/Time
Traveled:
87nm/0:44
Distance/Time
To Go:
Arrived

Flight Plot

Page will automatically refresh every two minutes.

Flight plan parsing failed; only flown route is shown


Map Options




Map Legend


Flown Route
Filed Route
Departure Airport
Arrival Airport
Navaid (VOR, NDB)
Fix

Horizontal Profiles

Position Reports

Time Latitude Longitude Heading Altitude Ground
Speed
29-Sep-22 12:02 36.779844 -119.731619 280 339ft 0kts
29-Sep-22 12:03 36.779844 -119.731619 280 339ft 0kts
29-Sep-22 12:04 36.779844 -119.731619 280 339ft 0kts
29-Sep-22 12:05 36.779844 -119.731619 280 339ft 0kts
29-Sep-22 12:06 36.779844 -119.731619 280 339ft 0kts
29-Sep-22 12:07 36.779844 -119.731619 280 339ft 0kts
29-Sep-22 12:08 36.779844 -119.731619 280 339ft 0kts
29-Sep-22 12:09 36.779844 -119.731619 280 339ft 0kts
29-Sep-22 12:10 36.779844 -119.731619 280 339ft 0kts
29-Sep-22 12:11 36.779844 -119.731619 280 339ft 0kts
29-Sep-22 12:12 36.779844 -119.731619 280 339ft 0kts
29-Sep-22 12:13 36.779844 -119.731619 280 339ft 0kts
29-Sep-22 12:14 36.779844 -119.731619 280 339ft 0kts
29-Sep-22 12:15 36.779845 -119.731620 280 339ft 0kts
29-Sep-22 12:16 36.779845 -119.731621 280 339ft 0kts
29-Sep-22 12:17 36.779845 -119.731621 280 339ft 0kts
29-Sep-22 12:18 36.779845 -119.731622 280 339ft 0kts
29-Sep-22 12:19 36.779845 -119.731623 280 339ft 0kts
29-Sep-22 12:20 36.779845 -119.731623 280 339ft 0kts
29-Sep-22 12:21 36.779845 -119.731624 280 339ft 0kts
29-Sep-22 12:22 36.779845 -119.731625 280 339ft 0kts
29-Sep-22 12:23 36.779983 -119.731813 353 339ft 5kts
29-Sep-22 12:24 36.780765 -119.730866 113 339ft 8kts
29-Sep-22 12:25 36.777178 -119.724558 125 339ft 31kts
29-Sep-22 12:26 36.771538 -119.714682 125 339ft 30kts
29-Sep-22 12:27 36.770034 -119.710982 38 339ft 0kts
29-Sep-22 12:28 36.770038 -119.710978 38 339ft 0kts
29-Sep-22 12:29 36.770040 -119.710976 38 339ft 0kts
29-Sep-22 12:30 36.770690 -119.710753 310 339ft 0kts
29-Sep-22 12:31 36.780757 -119.729754 302 619ft 102kts
29-Sep-22 12:32 36.765374 -119.745784 135 1464ft 123kts
29-Sep-22 12:33 36.747130 -119.704412 116 2137ft 148kts
29-Sep-22 12:34 36.713819 -119.679952 183 2764ft 149kts
29-Sep-22 12:35 36.674046 -119.670773 150 3390ft 144kts
29-Sep-22 12:36 36.632810 -119.655808 166 3531ft 165kts
29-Sep-22 12:37 36.587485 -119.641684 163 3526ft 169kts
29-Sep-22 12:38 36.542703 -119.624037 162 3524ft 169kts
29-Sep-22 12:39 36.497947 -119.606272 162 3539ft 171kts
29-Sep-22 12:40 36.451650 -119.587879 161 3542ft 176kts
29-Sep-22 12:41 36.404678 -119.566200 159 3532ft 175kts
29-Sep-22 12:42 36.359431 -119.544257 157 3525ft 170kts
29-Sep-22 12:43 36.316325 -119.521925 157 3538ft 167kts
29-Sep-22 12:44 36.272387 -119.499180 157 3512ft 170kts
29-Sep-22 12:45 36.228240 -119.476357 157 3523ft 172kts
29-Sep-22 12:46 36.182704 -119.452837 157 3521ft 176kts
29-Sep-22 12:47 36.136866 -119.429168 157 3509ft 174kts
29-Sep-22 12:48 36.092616 -119.406321 157 3516ft 171kts
29-Sep-22 12:49 36.048064 -119.383334 157 3529ft 174kts
29-Sep-22 12:50 36.002537 -119.359885 157 3514ft 174kts
29-Sep-22 12:51 35.957699 -119.336690 157 3507ft 172kts
29-Sep-22 12:52 35.913451 -119.313746 157 3499ft 169kts
29-Sep-22 12:53 35.870192 -119.291292 157 3512ft 170kts
29-Sep-22 12:54 35.825126 -119.267901 157 3500ft 175kts
29-Sep-22 12:55 35.783373 -119.246216 157 3488ft 172kts
29-Sep-22 12:56 35.739918 -119.223610 157 3495ft 169kts
29-Sep-22 12:57 35.699621 -119.202636 157 3487ft 170kts
29-Sep-22 12:58 35.656058 -119.179953 157 3488ft 169kts
29-Sep-22 12:59 35.615791 -119.158830 157 3047ft 150kts
29-Sep-22 13:00 35.576796 -119.140081 160 2520ft 142kts
29-Sep-22 13:01 35.543226 -119.125672 161 2500ft 128kts
29-Sep-22 13:02 35.507143 -119.110261 161 2503ft 143kts
29-Sep-22 13:03 35.473630 -119.084886 116 2248ft 133kts
29-Sep-22 13:04 35.455529 -119.051368 127 1592ft 107kts
29-Sep-22 13:05 35.439801 -119.028607 124 1234ft 78kts
29-Sep-22 13:06 35.429537 -118.998695 159 1020ft 120kts
29-Sep-22 13:07 35.406321 -119.017058 228 1111ft 105kts
29-Sep-22 13:08 35.407306 -119.049428 312 1154ft 110kts
29-Sep-22 13:09 35.436224 -119.055037 347 735ft 84kts
29-Sep-22 13:10 35.456305 -119.072415 6 1027ft 95kts
29-Sep-22 13:11 35.442079 -119.044348 138 1159ft 138kts
29-Sep-22 13:12 35.412127 -119.021933 207 1082ft 121kts
29-Sep-22 13:13 35.413392 -119.041490 4 961ft 88kts
29-Sep-22 13:14 35.430833 -119.051674 319 621ft 64kts
29-Sep-22 13:15 35.436362 -119.057424 50 510ft 6kts
29-Sep-22 13:16 35.430548 -119.049976 134 510ft 48kts
29-Sep-22 13:17 35.425576 -119.043453 127 510ft 11kts
29-Sep-22 13:18 35.425026 -119.042644 359 510ft 0kts
29-Sep-22 13:19 35.425026 -119.042644 359 510ft 0kts
29-Sep-22 13:20 35.425026 -119.042644 359 510ft 0kts
29-Sep-22 13:21 35.425026 -119.042644 359 510ft 0kts
29-Sep-22 13:22 35.425026 -119.042644 359 510ft 0kts
29-Sep-22 13:23 35.425026 -119.042644 359 510ft 0kts
29-Sep-22 13:24 35.425026 -119.042644 359 510ft 0kts

Navigation Log

Ident Type
Flight plan parsing failed, navigation log unavailable